Home > Products > Valid Products > TAF

000
FTUS41 KCAR 191100
TAFHUL
TAF
KHUL 191124Z 1912/2012 VRB03KT P6SM -SHSN OVC050
     FM191300 24004KT P6SM OVC045
     FM191500 27007KT P6SM OVC030
     FM191600 29008KT P6SM OVC035
     FM200200 32008KT P6SM SCT050=



000
FTUS41 KCAR 191100
TAFBGR
TAF
KBGR 191124Z 1912/2012 24006KT P6SM SCT025 OVC050
     FM191600 30012G22KT P6SM BKN040
     FM191800 32012G22KT P6SM SCT050
     FM200100 32008KT P6SM SCT050=



000
FTUS41 KCAR 191100
TAFBHB
TAF
KBHB 191124Z 1912/2012 23006KT P6SM OVC050
     FM191400 26008KT P6SM BKN040
     FM191700 30012G22KT P6SM SCT015 BKN040
     FM192200 32010KT P6SM FEW250
      AMD LTD TO CLD VIS AND WIND=



000
FTUS41 KCAR 191100
TAFCAR
TAF
KCAR 191124Z 1912/2012 22004KT P6SM -SHSN SCT015 OVC035
     FM191400 23006KT P6SM OVC025
     FM191600 30010G20KT P6SM OVC025
     FM191900 33012G22KT P6SM OVC035
     FM200200 32008KT P6SM BKN050=



000
FTUS41 KCAR 191100
TAFPQI
TAF
KPQI 191124Z 1912/2012 20004KT P6SM -SHSN SCT020 OVC050
     FM191400 29006KT P6SM OVC025
     FM191700 32012G22KT P6SM SCT025 OVC035
     FM200200 33007KT P6SM BKN060
      AMD LTD TO CLD VIS AND WIND=



000
FTUS41 KCAR 191000 AAA
TAFCAR
TAF AMD
KCAR 191034Z 1911/2006 VRB03KT P6SM SCT025 OVC035
     FM191300 23005KT P6SM OVC020
     FM191600 32010G20KT P6SM OVC025
     FM191900 33012G22KT P6SM OVC035=



000
FTUS41 KCAR 191000 AAA
TAFBHB
TAF AMD
KBHB 191033Z 1911/2006 24004KT P6SM SCT015 BKN050
     FM191200 24005KT P6SM BKN015
     FM191500 27006KT P6SM BKN025
     FM191700 31009KT P6SM SCT035
     FM192300 32010G20KT P6SM FEW250
      AMD LTD TO CLD VIS AND WIND=



000
FTUS41 KCAR 191000 AAA
TAFBGR
TAF AMD
KBGR 191033Z 1911/2006 25004KT P6SM SCT015 OVC045
     FM191500 28008KT P6SM BKN040
     FM192300 32012G22KT P6SM SCT250
     FM200200 31007KT P6SM SKC=



000
FTUS41 KCAR 190500 RRA
TAFCAR
TAF
KCAR 190555Z 1906/2006 00000KT P6SM -SN SCT025 OVC070
     FM190800 VRB03KT 4SM -SN OVC025
     FM191300 23005KT P6SM OVC020
     FM191600 32010G20KT P6SM OVC025
     FM191900 33012G22KT P6SM OVC035=



000
FTUS41 KCAR 190500 RRA
TAFHUL
TAF
KHUL 190555Z 1906/2006 20005KT P6SM SCT025 BKN100
     FM191000 00000KT P6SM -SHSN OVC025
     FM191300 VRB03KT P6SM OVC030
     FM191600 29008KT P6SM OVC035
     FM200200 32007KT P6SM SCT250=



000
FTUS41 KCAR 190500 RRA
TAFBHB
TAF
KBHB 190555Z 1906/2006 24004KT P6SM BKN015
     FM191000 24004KT P6SM BKN008
     FM191200 24005KT P6SM BKN015
     FM191500 27006KT P6SM BKN025
     FM191700 31009KT P6SM SCT035
     FM192300 32010G20KT P6SM FEW250
      AMD LTD TO CLD VIS AND WIND=



000
FTUS41 KCAR 190500 RRA
TAFPQI
TAF
KPQI 190555Z 1906/2006 VRB03KT P6SM SCT025 OVC080
     FM190900 VRB03KT 5SM -SHSN OVC025
     FM191200 22004KT P6SM OVC025
     FM191400 24006KT P6SM OVC020
     FM191600 29010KT P6SM OVC020
     FM192100 32013KT P6SM OVC040
      AMD LTD TO CLD VIS AND WIND=



000
FTUS41 KCAR 190500 RRA
TAFBGR
TAF
KBGR 190555Z 1906/2006 VRB03KT P6SM SCT015 BKN250
     FM190800 25004KT P6SM OVC015
     FM191500 28008KT P6SM BKN040
     FM192300 32012G22KT P6SM SCT250
     FM200200 31007KT P6SM SKC=



000
FTUS41 KCAR 190000 AAA
TAFBHB
TAF AMD
KBHB 190006Z 1900/1924 22006KT P6SM OVC017
     FM190900 20004KT P6SM VCSH OVC015
     FM191100 23005KT 5SM -SHRASN OVC012
     FM191500 31008G15KT P6SM SCT025 BKN120
      AMD LTD TO CLD VIS AND WIND=



000
FTUS41 KCAR 182300
TAFBGR
TAF
KBGR 182321Z 1900/1924 19011KT P6SM FEW120 OVC250
     FM190300 21003KT P6SM OVC020
     FM190900 23005KT P6SM VCSH OVC020
     FM191100 23007KT 5SM -SHSNRA OVC015
     FM191500 30008G15KT P6SM SCT025 BKN120=



000
FTUS41 KCAR 182300
TAFPQI
TAF
KPQI 182321Z 1900/1924 15005KT P6SM BKN120 OVC200
     FM190700 19003KT P6SM -SHSN SCT025 OVC050
     FM190900 19003KT 3SM -SHSN OVC025
     FM191600 32008G15KT 5SM -SHSN OVC025
     FM191800 32015G25KT P6SM VCSH BKN025 OVC040
      AMD LTD TO CLD VIS AND WIND=



000
FTUS41 KCAR 182300
TAFHUL
TAF
KHUL 182321Z 1900/1924 17003KT P6SM BKN120 OVC200
     FM190800 20003KT P6SM -SHSNRA SCT025 OVC050
     FM191000 20003KT 2SM -SHSN OVC020
     FM191500 31008G15KT 5SM -SHRASN OVC025
     FM191900 32014G23KT P6SM VCSH BKN025 OVC040=



000
FTUS41 KCAR 182300
TAFCAR
TAF
KCAR 182321Z 1900/1924 16004KT P6SM BKN120 OVC200
     FM190700 19003KT P6SM -SHSN SCT025 OVC050
     FM190900 19003KT 2SM -SHSN OVC020
     FM191600 32008G15KT 5SM -SHSN OVC025
     FM191800 32016G26KT P6SM VCSH BKN025 OVC040=



000
FTUS41 KCAR 182300
TAFBHB
TAF
KBHB 182321Z 1900/1924 21007KT P6SM FEW120 OVC250
     FM190200 19003KT P6SM OVC020
     FM190900 20004KT P6SM VCSH OVC015
     FM191100 23005KT 5SM -SHRASN OVC012
     FM191500 31008G15KT P6SM SCT025 BKN120
      AMD LTD TO CLD VIS AND WIND=



000
FTUS41 KCAR 181700 RRA
TAFCAR
TAF
KCAR 181750Z 1818/1918 15010KT P6SM BKN150
     FM190700 19003KT P6SM -SHSN SCT025 OVC050
     FM190800 19003KT 2SM -SHSN OVC020
     FM191600 32008G15KT 5SM -SHSN OVC025=



000
FTUS41 KCAR 181700 RRA
TAFHUL
TAF
KHUL 181750Z 1818/1918 21010KT P6SM BKN150
     FM190800 20003KT P6SM -SHSN SCT025 OVC050
     FM190900 20003KT 2SM -SHSN OVC020
     FM191500 31008G15KT 5SM -SHRASN OVC025=



000
FTUS41 KCAR 181700 RRA
TAFBGR
TAF
KBGR 181750Z 1818/1918 17010KT P6SM SCT200
     FM190300 21003KT P6SM BKN025
     FM191400 30008G15KT P6SM SCT025 BKN120=



000
FTUS41 KCAR 181700 RRA
TAFPQI
TAF
KPQI 181750Z 1818/1918 15010KT P6SM BKN150
     FM190700 19003KT P6SM -SHSN SCT025 OVC050
     FM190800 19003KT 2SM -SHSN OVC020
     FM191600 32008G15KT 5SM -SHSN OVC025
      AMD LTD TO CLD VIS AND WIND=



000
FTUS41 KCAR 181700 RRA
TAFBHB
TAF
KBHB 181750Z 1818/1918 10008KT P6SM SCT200
     FM190300 19003KT P6SM BKN025
     FM191400 31008G15KT P6SM SCT025 BKN120
      AMD LTD TO CLD VIS AND WIND=



000
FTUS41 KCAR 181100
TAFBHB
TAF
KBHB 181131Z 1812/1912 12006KT P6SM SCT250
     FM190800 23004KT P6SM BKN040
      AMD LTD TO CLD VIS AND WIND=



000
FTUS41 KCAR 181100
TAFHUL
TAF
KHUL 181131Z 1812/1912 16006KT P6SM SCT250
     FM190000 16004KT P6SM SCT250
     FM190600 20004KT P6SM OVC045
     FM191000 22004KT P6SM OVC250=



000
FTUS41 KCAR 181100
TAFCAR
TAF
KCAR 181131Z 1812/1912 16005KT P6SM BKN250
     FM190700 18004KT P6SM SCT025 OVC050
     FM191000 VRB03KT P6SM SCT015 OVC025=



000
FTUS41 KCAR 181100
TAFPQI
TAF
KPQI 181131Z 1812/1912 15005KT P6SM BKN250
     FM190800 VRB03KT P6SM OVC025
     FM191000 VRB03KT P6SM SCT025 OVC100
      AMD LTD TO CLD VIS AND WIND=



000
FTUS41 KCAR 181100
TAFBGR
TAF
KBGR 181131Z 1812/1912 10004KT P6SM SKC
     FM181800 15008KT P6SM SKC
     FM190000 18004KT P6SM SCT250
     FM190700 VRB03KT P6SM BKN045
     FM191000 24004KT P6SM SCT025 BKN120=



000
FTUS41 KCAR 180500 RRA
TAFHUL
TAF
KHUL 180545Z 1806/1906 VRB03KT P6SM SKC
     FM181500 16007KT P6SM SKC
     FM190200 VRB03KT P6SM BKN250=



000
FTUS41 KCAR 180500 RRA
TAFBGR
TAF
KBGR 180545Z 1806/1906 00000KT P6SM SKC
     FM181500 13006KT P6SM SKC=



000
FTUS41 KCAR 180500 RRA
TAFBHB
TAF
KBHB 180545Z 1806/1906 VRB03KT P6SM SKC
     FM181300 09007KT P6SM SKC
      AMD LTD TO CLD VIS AND WIND=



000
FTUS41 KCAR 180500 RRA
TAFCAR
TAF
KCAR 180545Z 1806/1906 16004KT P6SM FEW250
     FM181600 17008KT P6SM SCT250
     FM190400 17004KT P6SM BKN070=



000
FTUS41 KCAR 180500 RRA
TAFPQI
TAF
KPQI 180545Z 1806/1906 VRB03KT P6SM SKC
     FM182000 17008KT P6SM BKN250
     FM190400 17004KT P6SM BKN080
      AMD LTD TO CLD VIS AND WIND=



000
FTUS41 KCAR 172300
TAFPQI
TAF
KPQI 172337Z 1800/1824 15004KT P6SM BKN180
     FM181500 17007KT P6SM BKN180
      AMD LTD TO CLD VIS AND WIND=



000
FTUS41 KCAR 172300
TAFBGR
TAF
KBGR 172337Z 1800/1824 17006KT P6SM BKN200
     FM180600 VRB03KT P6SM BKN200
     FM181500 16008KT P6SM BKN200=



000
FTUS41 KCAR 172300
TAFBHB
TAF
KBHB 172337Z 1800/1824 12003KT P6SM BKN200
     FM181500 15010KT P6SM BKN200
      AMD LTD TO CLD VIS AND WIND=



000
FTUS41 KCAR 172300
TAFCAR
TAF
KCAR 172337Z 1800/1824 15004KT P6SM BKN180
     FM181500 17007KT P6SM BKN180=



000
FTUS41 KCAR 172300
TAFHUL
TAF
KHUL 172337Z 1800/1824 15003KT P6SM BKN180
     FM181500 19008KT P6SM BKN180=



000
FTUS41 KCAR 171700
TAFHUL
TAF
KHUL 171731Z 1718/1818 VRB05KT P6SM SCT250
     FM180000 14004KT P6SM SCT200
     FM181400 16008KT P6SM SCT030 BKN150=



000
FTUS41 KCAR 171700
TAFPQI
TAF
KPQI 171731Z 1718/1818 VRB05KT P6SM SCT250
     FM180000 14004KT P6SM SCT200
     FM181400 16008KT P6SM SCT030 BKN150=



000
FTUS41 KCAR 171700
TAFCAR
TAF
KCAR 171731Z 1718/1818 VRB05KT P6SM SCT250
     FM180000 15004KT P6SM SCT200
     FM181400 17008KT P6SM SCT030 BKN150=



000
FTUS41 KCAR 171700
TAFBGR
TAF
KBGR 171731Z 1718/1818 VRB06KT P6SM SCT250
     FM180000 11005KT P6SM SCT200
     FM181400 14006KT P6SM SCT030 BKN150=



000
FTUS41 KCAR 171700
TAFBHB
TAF
KBHB 171731Z 1718/1818 10006KT P6SM SKC
     FM180000 10006KT P6SM SCT200
     FM181400 16008KT P6SM FEW025 SCT150=



000
FTUS41 KCAR 171400 AAB
TAFBHB
TAF AMD
KBHB 171458Z 1715/1812 06010KT P6SM SKC
     FM172000 12009G16KT P6SM FEW250
     FM180000 15005KT P6SM FEW250
      AMD LTD TO CLD VIS AND WIND=



000
FTUS41 KCAR 171400 AAA
TAFBHB
TAF AMD
KBHB 171429Z 1714/1812 07010G18KT P6SM SKC
     FM172000 12009G16KT P6SM FEW250
     FM180000 15005KT P6SM FEW250
      AMD LTD TO CLD VIS AND WIND=



000
FTUS41 KCAR 171100
TAFHUL
TAF
KHUL 171138Z 1712/1812 29004KT P6SM SKC=



000
FTUS41 KCAR 171100
TAFBGR
TAF
KBGR 171138Z 1712/1812 00000KT P6SM SKC
     FM172000 16006KT P6SM SKC
     FM180400 00000KT P6SM SKC=



000
FTUS41 KCAR 171100
TAFCAR
TAF
KCAR 171138Z 1712/1812 25004KT P6SM SKC=



000
FTUS41 KCAR 171100
TAFPQI
TAF
KPQI 171138Z 1712/1812 VRB03KT P6SM SKC
     FM181000 16007KT P6SM SKC
      AMD NOT SKED=



000
FTUS41 KCAR 171100
TAFBHB
TAF
KBHB 171138Z 1712/1812 01005KT P6SM SKC
     FM172000 14009KT P6SM FEW250
     FM180000 15005KT P6SM FEW250
      AMD LTD TO CLD VIS AND WIND=



000
FTUS41 KCAR 170600 CCA
TAFBGR
TAF COR
KBGR 170604Z 1706/1806 00000KT P6SM SKC
     FM172300 16006KT P6SM SKC
     FM180300 00000KT P6SM SKC=



000
FTUS41 KCAR 170600 CCA
TAFHUL
TAF COR
KHUL 170604Z 1706/1806 28004KT P6SM SKC=



000
FTUS41 KCAR 170600 CCA
TAFBHB
TAF COR
KBHB 170604Z 1706/1806 33006KT P6SM SKC
     FM172100 15009KT P6SM SKC
     FM172300 15005KT P6SM SKC
      AMD LTD TO CLD VIS AND WIND=



000
FTUS41 KCAR 170600 CCA
TAFCAR
TAF COR
KCAR 170603Z 1706/1806 VRB03KT P6SM SKC=



000
FTUS41 KCAR 170600 CCA
TAFPQI
TAF COR
KPQI 170603Z 1706/1806 VRB03KT P6SM SKC
      AMD NOT SKED=



000
FTUS41 KCAR 170600 AAA
TAFBHB
TAF AMD
KBHB 170602Z 1706/1806 33006KT P6SM SKC
     FM172100 15009KT P6SM FEW250
     FM172300 15005KT P6SM FEW250
      AMD LTD TO CLD VIS AND WIND=



000
FTUS41 KCAR 170600 AAA
TAFPQI
TAF AMD
KPQI 170602Z 1706/1806 VRB03KT P6SM SKC
      AMD LTD TO CLD VIS AND WIND=



000
FTUS41 KCAR 170600 AAA
TAFCAR
TAF AMD
KCAR 170602Z 1706/1806 VRB03KT P6SM SKC=



000
FTUS41 KCAR 170600 AAA
TAFBGR
TAF AMD
KBGR 170602Z 1706/1806 00000KT P6SM SKC
     FM172300 16006KT P6SM FEW250
     FM180400 00000KT P6SM FEW250=



000
FTUS41 KCAR 170600 AAA
TAFHUL
TAF AMD
KHUL 170602Z 1706/1806 28004KT P6SM SKC=



000
FTUS41 KCAR 162300 CCA
TAFPQI
TAF COR
KPQI 162353Z 1700/1724 26005KT P6SM SKC
     FM171800 VRB04KT P6SM BKN150
      AMD NOT SKED=



000
FTUS41 KCAR 162300 RRA
TAFBHB
TAF
KBHB 162352Z 1700/1724 34003KT P6SM SKC
     FM171800 08008KT P6SM SCT200
      AMD LTD TO CLD VIS AND WIND=



000
FTUS41 KCAR 162300 RRA
TAFPQI
TAF
KPQI 162352Z 1700/1724 26005KT P6SM SKC
     FM171800 VRB04KT P6SM BKN150
      AMD LTD TO CLD VIS AND WIND=



000
FTUS41 KCAR 162300 RRA
TAFBGR
TAF
KBGR 162352Z 1700/1724 32008G15KT P6SM SKC
     FM170100 34004KT P6SM SKC
     FM171800 07007KT P6SM SCT200=



000
FTUS41 KCAR 162300 RRA
TAFCAR
TAF
KCAR 162352Z 1700/1724 26005KT P6SM SKC
     FM171800 VRB04KT P6SM BKN150=



000
FTUS41 KCAR 162300 RRA
TAFHUL
TAF
KHUL 162352Z 1700/1724 30008G15KT P6SM SKC
     FM170100 VRB03KT P6SM SKC
     FM171800 VRB04KT P6SM SCT180=



000
FTUS41 KCAR 161700 AAA
TAFPQI
TAF AMD
KPQI 161724Z 1617/1718 30017G25KT P6SM VCSH BKN035
     FM162000 30013G23KT P6SM SCT035
     FM170000 29006KT P6SM SKC
     FM170800 00000KT P6SM SKC
     FM171400 00000KT P6SM BKN150
      AMD NOT SKED=



000
FTUS41 KCAR 161700
TAFBGR
TAF
KBGR 161720Z 1618/1718 32017G25KT P6SM FEW040 SCT200
     FM170000 31004KT P6SM SKC=



000
FTUS41 KCAR 161700
TAFBHB
TAF
KBHB 161720Z 1618/1718 33012G19KT P6SM SCT200
     FM170000 32005KT P6SM SKC
      AMD LTD TO CLD VIS AND WIND=



000
FTUS41 KCAR 161700
TAFPQI
TAF
KPQI 161720Z 1618/1718 30017G25KT P6SM VCSH BKN035
     FM162000 30013G23KT P6SM SCT035
     FM170000 29006KT P6SM SKC
     FM170800 00000KT P6SM SKC
     FM171400 00000KT P6SM BKN150
      AMD LTD TO CLD VIS AND WIND=



000
FTUS41 KCAR 161700
TAFCAR
TAF
KCAR 161720Z 1618/1718 31017G25KT P6SM VCSH BKN035
     FM162000 30015G23KT P6SM SCT035
     FM170000 29006KT P6SM SKC
     FM170800 00000KT P6SM SKC
     FM171400 VRB03KT P6SM BKN150=



000
FTUS41 KCAR 161700
TAFHUL
TAF
KHUL 161720Z 1618/1718 30015G24KT P6SM VCSH OVC035
     FM162000 31013KT P6SM SCT035
     FM170000 30006KT P6SM SKC
     FM170500 00000KT P6SM SKC
     FM171600 VRB03KT P6SM BKN150=



000
FTUS41 KCAR 161400 AAA
TAFBHB
TAF AMD
KBHB 161404Z 1614/1712 31017G27KT P6SM SCT070
     FM162300 32009KT P6SM SKC
      AMD LTD TO CLD VIS AND WIND=



000
FTUS41 KCAR 161400 AAA
TAFBGR
TAF AMD
KBGR 161404Z 1614/1712 31018G26KT P6SM FEW030 BKN100
     FM161500 31019G26KT P6SM SCT060
     FM162200 31010G20KT P6SM SKC
     FM170000 31006KT P6SM SKC=



    US Dept of Commerce
    National Oceanic and Atmospheric Administration
    National Weather Service
    1325 East West Highway
    Silver Spring, MD 20910
    Page Author: NWS Internet Services Team
Disclaimer
Information Quality
Credits
Glossary
Privacy Policy
Freedom of Information Act (FOIA)
About Us
Career Opportunities